createdAt,value
2023-08-16T00:01:00.462Z,100907.39
2023-08-16T00:03:37.757Z,100906.53
2023-08-16T00:06:13.092Z,100905.49
2023-08-16T00:08:42.050Z,100902.96
2023-08-16T00:11:10.695Z,100906.23
2023-08-16T00:13:39.161Z,100901.81
2023-08-16T00:16:07.753Z,100900.56
2023-08-16T00:18:36.220Z,100900.20
2023-08-16T00:21:04.646Z,100899.73
2023-08-16T00:23:33.260Z,100900.36
2023-08-16T00:26:01.587Z,100899.39
2023-08-16T00:28:29.959Z,100898.21
2023-08-16T00:30:58.633Z,100892.58
2023-08-16T00:33:27.044Z,100897.93
2023-08-16T00:35:55.384Z,100895.94
2023-08-16T00:38:24.015Z,100892.44
2023-08-16T00:40:52.693Z,100893.23
2023-08-16T00:43:21.120Z,100890.22
2023-08-16T00:45:50.421Z,100893.88
2023-08-16T00:48:19.248Z,100893.95
2023-08-16T00:50:48.126Z,100892.83
2023-08-16T00:53:19.189Z,100894.98
2023-08-16T00:55:47.827Z,100888.75
2023-08-16T00:58:16.423Z,100889.73
2023-08-16T01:00:44.882Z,100889.95
2023-08-16T01:03:13.391Z,100884.12
2023-08-16T01:05:42.087Z,100885.80
2023-08-16T01:08:10.650Z,100885.44
2023-08-16T01:10:43.527Z,100888.29
2023-08-16T01:13:14.814Z,100890.68
2023-08-16T01:15:45.436Z,100887.83
2023-08-16T01:18:15.361Z,100893.63
2023-08-16T01:20:44.790Z,100891.19
2023-08-16T01:23:19.623Z,100895.55
2023-08-16T01:25:51.011Z,100900.08
2023-08-16T01:28:20.169Z,100902.02
2023-08-16T01:30:48.940Z,100904.46
2023-08-16T01:33:17.302Z,100910.93
2023-08-16T01:35:45.956Z,100914.20
2023-08-16T01:38:14.716Z,100909.15
2023-08-16T01:40:50.252Z,100904.41
2023-08-16T01:43:18.807Z,100903.56
2023-08-16T01:45:48.989Z,100901.95
2023-08-16T01:48:17.805Z,100905.20
2023-08-16T01:50:46.515Z,100904.23
2023-08-16T01:53:15.106Z,100901.27
2023-08-16T01:55:43.421Z,100903.82
2023-08-16T01:58:11.883Z,100905.48
2023-08-16T02:00:40.180Z,100908.36
2023-08-16T02:03:08.540Z,100904.66
2023-08-16T02:05:37.267Z,100901.04
2023-08-16T02:08:06.199Z,100898.04
2023-08-16T02:10:34.630Z,100893.81
2023-08-16T02:13:03.305Z,100903.08
2023-08-16T02:15:31.816Z,100902.11
2023-08-16T02:18:00.337Z,100899.73
2023-08-16T02:20:28.787Z,100895.47
2023-08-16T02:22:57.272Z,100897.86
2023-08-16T02:25:25.635Z,100892.66
2023-08-16T02:27:54.171Z,100884.54
2023-08-16T02:30:22.764Z,100886.13
2023-08-16T02:32:51.073Z,100881.30
2023-08-16T02:35:19.728Z,100883.63
2023-08-16T02:37:48.089Z,100884.53
2023-08-16T02:40:17.189Z,100885.88
2023-08-16T02:42:47.248Z,100887.30
2023-08-16T02:45:15.667Z,100887.11
2023-08-16T02:47:44.114Z,100885.53
2023-08-16T02:50:12.846Z,100884.36
2023-08-16T02:52:41.142Z,100889.67
2023-08-16T02:55:10.187Z,100890.23
2023-08-16T02:57:38.700Z,100889.70
2023-08-16T03:00:10.977Z,100886.94
2023-08-16T03:02:39.805Z,100891.72
2023-08-16T03:05:10.086Z,100889.89
2023-08-16T03:07:39.673Z,100890.23
2023-08-16T03:10:10.192Z,100892.80
2023-08-16T03:12:38.608Z,100890.71
2023-08-16T03:15:09.241Z,100882.95
2023-08-16T03:17:37.652Z,100878.91
2023-08-16T03:20:10.221Z,100877.92
2023-08-16T03:22:38.650Z,100886.56
2023-08-16T03:25:08.989Z,100892.77
2023-08-16T03:27:37.544Z,100899.26
2023-08-16T03:30:07.936Z,100897.86
2023-08-16T03:32:36.299Z,100897.47
2023-08-16T03:35:05.898Z,100898.51
2023-08-16T03:37:34.298Z,100894.92
2023-08-16T03:40:03.124Z,100897.92
2023-08-16T03:42:31.507Z,100901.39
2023-08-16T03:44:59.853Z,100903.14
2023-08-16T03:47:30.292Z,100904.66
2023-08-16T03:50:00.173Z,100906.56
2023-08-16T03:52:28.481Z,100904.79
2023-08-16T03:54:56.904Z,100900.14
2023-08-16T03:57:25.750Z,100904.23
2023-08-16T03:59:54.445Z,100902.35
2023-08-16T04:02:22.932Z,100909.71
2023-08-16T04:04:53.491Z,100914.31
2023-08-16T04:07:22.529Z,100915.84
2023-08-16T04:09:51.590Z,100911.28
2023-08-16T04:12:20.304Z,100913.55
2023-08-16T04:14:48.669Z,100919.46
2023-08-16T04:17:17.292Z,100914.44
2023-08-16T04:19:45.654Z,100913.64
2023-08-16T04:22:13.969Z,100917.17
2023-08-16T04:24:42.621Z,100923.67
2023-08-16T04:27:11.029Z,100926.80
2023-08-16T04:29:39.550Z,100931.96
2023-08-16T04:32:08.378Z,100936.77
2023-08-16T04:34:36.810Z,100939.86
2023-08-16T04:37:05.363Z,100940.37
2023-08-16T04:39:33.848Z,100946.16
2023-08-16T04:42:02.189Z,100951.80
2023-08-16T04:44:30.538Z,100954.20
2023-08-16T04:46:58.861Z,100951.18
2023-08-16T04:49:28.804Z,100949.30
2023-08-16T04:51:57.624Z,100945.91
2023-08-16T04:54:26.307Z,100946.48
2023-08-16T04:56:54.764Z,100942.73
2023-08-16T04:59:23.143Z,100939.65
2023-08-16T05:01:51.544Z,100937.79
2023-08-16T05:04:19.839Z,100939.45
2023-08-16T05:06:48.159Z,100934.98
2023-08-16T05:09:16.836Z,100931.94
2023-08-16T05:11:45.217Z,100927.06
2023-08-16T05:14:13.544Z,100930.02
2023-08-16T05:16:42.031Z,100929.94
2023-08-16T05:19:10.508Z,100925.92
2023-08-16T05:21:38.942Z,100923.73
2023-08-16T05:24:09.008Z,100928.31
2023-08-16T05:26:37.472Z,100926.42
2023-08-16T05:29:05.962Z,100925.02
2023-08-16T05:31:34.274Z,100926.00
2023-08-16T05:34:02.664Z,100927.28
2023-08-16T05:36:31.018Z,100922.64
2023-08-16T05:38:59.597Z,100921.99
2023-08-16T05:41:29.523Z,100917.42
2023-08-16T05:43:57.944Z,100915.66
2023-08-16T05:46:26.273Z,100912.44
2023-08-16T05:48:54.582Z,100914.64
2023-08-16T05:51:22.936Z,100906.30
2023-08-16T05:53:51.240Z,100908.48
2023-08-16T05:56:19.704Z,100905.20
2023-08-16T05:58:48.018Z,100904.26
2023-08-16T06:01:16.561Z,100903.36
2023-08-16T06:03:45.070Z,100898.27
2023-08-16T06:06:13.530Z,100898.19
2023-08-16T06:08:42.133Z,100898.24
2023-08-16T06:11:11.047Z,100897.20
2023-08-16T06:13:39.376Z,100899.23
2023-08-16T06:16:08.052Z,100900.36
2023-08-16T06:18:36.348Z,100905.00
2023-08-16T06:21:04.711Z,100913.53
2023-08-16T06:23:33.162Z,100915.34
2023-08-16T06:26:01.458Z,100917.04
2023-08-16T06:28:30.748Z,100915.20
2023-08-16T06:30:59.133Z,100919.52
2023-08-16T06:33:28.436Z,100921.89
2023-08-16T06:35:56.802Z,100927.45
2023-08-16T06:38:25.132Z,100936.48
2023-08-16T06:40:53.769Z,100940.88
2023-08-16T06:43:22.215Z,100939.02
2023-08-16T06:45:51.043Z,100936.97
2023-08-16T06:48:19.320Z,100926.31
2023-08-16T06:50:47.759Z,100923.27
2023-08-16T06:53:16.448Z,100924.65
2023-08-16T06:55:44.817Z,100924.52
2023-08-16T06:58:13.169Z,100926.27
2023-08-16T07:00:45.035Z,100928.61
2023-08-16T07:03:13.518Z,100926.56
2023-08-16T07:05:42.185Z,100923.14
2023-08-16T07:08:10.635Z,100919.52
2023-08-16T07:10:39.025Z,100920.65
2023-08-16T07:13:07.664Z,100920.39
2023-08-16T07:15:36.074Z,100916.33
2023-08-16T07:18:06.252Z,100918.77
2023-08-16T07:20:34.974Z,100919.54
2023-08-16T07:23:05.981Z,100920.84
2023-08-16T07:25:35.479Z,100922.98
2023-08-16T07:28:05.306Z,100922.41
2023-08-16T07:30:36.086Z,100919.15
2023-08-16T07:33:05.569Z,100923.64
2023-08-16T07:35:34.031Z,100922.91
2023-08-16T07:38:04.187Z,100921.51
2023-08-16T07:40:32.694Z,100921.23
2023-08-16T07:43:01.067Z,100925.34
2023-08-16T07:45:29.495Z,100920.20
2023-08-16T07:47:58.153Z,100917.73
2023-08-16T07:50:26.630Z,100916.84
2023-08-16T07:52:54.997Z,100912.50
2023-08-16T07:55:29.695Z,100916.61
2023-08-16T07:57:58.112Z,100916.57
2023-08-16T08:00:26.598Z,100918.17
2023-08-16T08:02:59.823Z,100919.26
2023-08-16T08:05:31.136Z,100922.99
2023-08-16T08:08:01.252Z,100927.49
2023-08-16T08:10:31.040Z,100925.35
2023-08-16T08:13:00.059Z,100922.11
2023-08-16T08:15:28.869Z,100920.30
2023-08-16T08:17:57.486Z,100923.21
2023-08-16T08:20:26.034Z,100919.41
2023-08-16T08:22:54.507Z,100921.06
2023-08-16T08:25:22.907Z,100919.81
2023-08-16T08:27:51.258Z,100920.17
2023-08-16T08:30:20.075Z,100920.59
2023-08-16T08:32:48.982Z,100913.17
2023-08-16T08:35:17.530Z,100918.30
2023-08-16T08:37:45.871Z,100918.92
2023-08-16T08:40:15.256Z,100918.99
2023-08-16T08:42:47.244Z,100918.95
2023-08-16T08:45:15.966Z,100913.13
2023-08-16T08:47:45.358Z,100911.13
2023-08-16T08:50:13.892Z,100909.38
2023-08-16T08:52:42.774Z,100915.80
2023-08-16T08:55:11.453Z,100911.11
2023-08-16T08:57:39.883Z,100914.96
2023-08-16T09:00:15.078Z,100912.82
2023-08-16T09:02:44.105Z,100905.34
2023-08-16T09:05:13.999Z,100907.79
2023-08-16T09:07:43.379Z,100907.03
2023-08-16T09:10:13.052Z,100909.63
2023-08-16T09:12:41.510Z,100907.39
2023-08-16T09:15:11.010Z,100901.81
2023-08-16T09:17:39.406Z,100904.43
2023-08-16T09:20:09.594Z,100901.59
2023-08-16T09:22:39.091Z,100900.13
2023-08-16T09:25:11.557Z,100895.98
2023-08-16T09:27:42.335Z,100896.16
2023-08-16T09:30:15.239Z,100897.92
2023-08-16T09:32:46.366Z,100900.17
2023-08-16T09:35:14.885Z,100902.13
2023-08-16T09:37:44.655Z,100901.62
2023-08-16T09:40:13.423Z,100898.86
2023-08-16T09:42:41.753Z,100901.72
2023-08-16T09:45:10.798Z,100905.73
2023-08-16T09:47:59.739Z,100902.40
2023-08-16T09:50:29.335Z,100900.63
2023-08-16T09:52:58.939Z,100900.48
2023-08-16T09:55:30.090Z,100902.70
2023-08-16T09:57:59.732Z,100902.18
2023-08-16T10:00:28.908Z,100905.04
2023-08-16T10:02:58.931Z,100908.31
2023-08-16T10:05:46.185Z,100908.27
2023-08-16T10:08:15.309Z,100904.10
2023-08-16T10:10:44.133Z,100902.21
2023-08-16T10:13:12.939Z,100899.36
2023-08-16T10:15:44.540Z,100902.90
2023-08-16T10:18:14.062Z,100904.70
2023-08-16T10:20:43.447Z,100903.95
2023-08-16T10:23:12.919Z,100901.55
2023-08-16T10:25:45.999Z,100898.50
2023-08-16T10:28:16.122Z,100898.50
2023-08-16T10:31:13.279Z,100897.03
2023-08-16T10:33:38.037Z,100899.47
2023-08-16T10:36:07.641Z,100902.95
2023-08-16T10:38:38.201Z,100901.93
2023-08-16T10:41:14.576Z,100906.65
2023-08-16T10:43:49.861Z,100901.15
2023-08-16T10:46:30.451Z,100902.11
2023-08-16T10:49:01.673Z,100899.96
2023-08-16T10:51:30.921Z,100896.14
2023-08-16T10:53:59.644Z,100894.23
2023-08-16T10:56:38.739Z,100896.52
2023-08-16T10:59:08.446Z,100900.97
2023-08-16T11:01:44.273Z,100904.95
2023-08-16T11:04:13.362Z,100902.61
2023-08-16T11:06:48.182Z,100907.13
2023-08-16T11:09:20.516Z,100903.44
2023-08-16T11:11:49.583Z,100907.90
2023-08-16T11:14:19.354Z,100907.77
2023-08-16T11:16:47.926Z,100907.00
2023-08-16T11:19:18.435Z,100905.33
2023-08-16T11:21:48.124Z,100909.16
2023-08-16T11:24:16.422Z,100905.13
2023-08-16T11:26:45.074Z,100903.91
2023-08-16T11:29:14.045Z,100906.64
2023-08-16T11:31:42.500Z,100905.63
2023-08-16T11:34:11.469Z,100901.42
2023-08-16T11:36:40.110Z,100897.76
2023-08-16T11:39:09.331Z,100897.98
2023-08-16T11:41:37.984Z,100895.04
2023-08-16T11:44:07.153Z,100896.61
2023-08-16T11:46:47.890Z,100901.13
2023-08-16T11:49:22.141Z,100904.00
2023-08-16T11:51:51.502Z,100899.38
2023-08-16T11:54:23.613Z,100897.11
2023-08-16T11:56:52.222Z,100896.61
2023-08-16T11:59:27.744Z,100896.98
2023-08-16T12:01:56.210Z,100896.83
2023-08-16T12:04:25.530Z,100901.02
2023-08-16T12:06:54.340Z,100895.94
2023-08-16T12:09:22.840Z,100896.45
2023-08-16T12:11:52.831Z,100897.60
2023-08-16T12:14:24.412Z,100893.30
2023-08-16T12:16:52.775Z,100893.19
2023-08-16T12:19:21.358Z,100895.00
2023-08-16T12:21:50.881Z,100888.95
2023-08-16T12:24:19.349Z,100886.21
2023-08-16T12:26:48.022Z,100881.13
2023-08-16T12:29:17.713Z,100879.86
2023-08-16T12:31:46.060Z,100876.81
2023-08-16T12:34:14.466Z,100876.67
2023-08-16T12:36:42.731Z,100878.88
2023-08-16T12:39:11.181Z,100876.84
2023-08-16T12:41:39.620Z,100880.87
2023-08-16T12:44:08.879Z,100880.27
2023-08-16T12:46:37.335Z,100875.08
2023-08-16T12:49:05.925Z,100876.10
2023-08-16T12:51:34.284Z,100872.27
2023-08-16T12:54:02.608Z,100873.89
2023-08-16T12:56:31.103Z,100867.38
2023-08-16T12:58:59.471Z,100861.80
2023-08-16T13:04:00.513Z,100861.52
2023-08-16T13:06:31.851Z,100858.32
2023-08-16T13:09:04.223Z,100860.00
2023-08-16T13:11:35.188Z,100860.13
2023-08-16T13:14:08.688Z,100857.30
2023-08-16T13:19:24.119Z,100854.98
2023-08-16T13:21:54.822Z,100853.34
2023-08-16T13:29:30.597Z,100849.63
2023-08-16T13:32:06.838Z,100844.85
2023-08-16T13:37:24.907Z,100838.17
2023-08-16T13:45:17.004Z,100834.55
2023-08-16T13:47:45.511Z,100827.87
2023-08-16T13:50:13.902Z,100831.95
2023-08-16T13:52:42.280Z,100828.59
2023-08-16T13:55:12.262Z,100828.70
2023-08-16T13:57:40.782Z,100828.33
2023-08-16T14:00:10.864Z,100830.48
2023-08-16T14:02:40.464Z,100833.05
2023-08-16T14:05:09.794Z,100829.59
2023-08-16T14:07:38.330Z,100827.25
2023-08-16T14:10:08.451Z,100830.17
2023-08-16T14:12:37.204Z,100823.88
2023-08-16T14:15:07.254Z,100822.42
2023-08-16T14:17:35.805Z,100824.34
2023-08-16T14:20:08.064Z,100825.64
2023-08-16T14:22:36.505Z,100830.77
2023-08-16T14:25:05.906Z,100833.55
2023-08-16T14:27:34.802Z,100834.49
2023-08-16T14:30:03.931Z,100836.74
2023-08-16T14:32:33.388Z,100835.19
2023-08-16T14:35:01.730Z,100833.37
2023-08-16T14:37:30.143Z,100829.34
2023-08-16T14:39:58.733Z,100833.62
2023-08-16T14:42:27.463Z,100833.16
2023-08-16T14:44:56.075Z,100828.45
2023-08-16T14:47:24.464Z,100824.40
2023-08-16T14:49:53.096Z,100825.75
2023-08-16T14:52:21.476Z,100825.17
2023-08-16T14:54:50.376Z,100823.77
2023-08-16T14:57:18.917Z,100823.84
2023-08-16T14:59:47.324Z,100820.02
2023-08-16T15:02:15.742Z,100818.89
2023-08-16T15:04:44.159Z,100821.53
2023-08-16T15:07:12.609Z,100821.73
2023-08-16T15:09:41.013Z,100819.08
2023-08-16T15:12:10.006Z,100819.00
2023-08-16T15:14:38.439Z,100820.52
2023-08-16T15:17:06.748Z,100819.06
2023-08-16T15:19:40.797Z,100820.71
2023-08-16T15:22:09.996Z,100823.31
2023-08-16T15:24:38.527Z,100816.83
2023-08-16T15:27:06.958Z,100814.26
2023-08-16T15:29:35.378Z,100816.09
2023-08-16T15:32:04.156Z,100812.80
2023-08-16T15:34:32.597Z,100810.27
2023-08-16T15:37:01.055Z,100811.27
2023-08-16T15:39:29.423Z,100808.90
2023-08-16T15:41:58.999Z,100802.88
2023-08-16T15:44:27.282Z,100803.17
2023-08-16T15:46:56.108Z,100801.51
2023-08-16T15:49:25.296Z,100802.87
2023-08-16T15:51:54.290Z,100802.80
2023-08-16T15:54:22.672Z,100804.63
2023-08-16T15:56:51.034Z,100805.64
2023-08-16T15:59:19.446Z,100807.02
2023-08-16T16:01:47.735Z,100806.48
2023-08-16T16:04:16.702Z,100805.02
2023-08-16T16:06:45.019Z,100800.83
2023-08-16T16:09:13.403Z,100800.42
2023-08-16T16:11:41.834Z,100802.66
2023-08-16T16:14:10.501Z,100803.45
2023-08-16T16:16:45.741Z,100800.70
2023-08-16T16:19:14.091Z,100799.91
2023-08-16T16:21:43.144Z,100798.68
2023-08-16T16:24:11.635Z,100798.20
2023-08-16T16:26:40.196Z,100794.68
2023-08-16T16:29:09.996Z,100795.58
2023-08-16T16:31:40.475Z,100795.48
2023-08-16T16:34:08.965Z,100793.86
2023-08-16T16:36:39.055Z,100793.13
2023-08-16T16:39:08.708Z,100793.28
2023-08-16T16:41:37.080Z,100794.44
2023-08-16T16:44:06.722Z,100791.47
2023-08-16T16:46:35.071Z,100789.75
2023-08-16T16:49:03.575Z,100788.23
2023-08-16T16:51:32.060Z,100785.58
2023-08-16T16:54:00.364Z,100783.29
2023-08-16T16:56:28.847Z,100789.54
2023-08-16T16:58:57.250Z,100790.55
2023-08-16T17:01:25.944Z,100787.59
2023-08-16T17:03:54.434Z,100792.14
2023-08-16T17:06:22.768Z,100794.23
2023-08-16T17:08:51.197Z,100795.67
2023-08-16T17:11:19.583Z,100792.73
2023-08-16T17:13:48.129Z,100791.98
2023-08-16T17:16:16.842Z,100787.33
2023-08-16T17:18:45.381Z,100790.80
2023-08-16T17:21:15.622Z,100789.41
2023-08-16T17:23:45.060Z,100792.39
2023-08-16T17:26:14.251Z,100789.88
2023-08-16T17:28:42.608Z,100792.15
2023-08-16T17:31:12.144Z,100791.54
2023-08-16T17:33:40.781Z,100791.88
2023-08-16T17:36:13.498Z,100794.63
2023-08-16T17:38:43.770Z,100791.42
2023-08-16T17:41:14.993Z,100794.94
2023-08-16T17:43:44.161Z,100796.77
2023-08-16T17:46:12.639Z,100800.39
2023-08-16T17:48:41.197Z,100800.67
2023-08-16T17:51:09.729Z,100802.73
2023-08-16T17:53:38.196Z,100804.63
2023-08-16T17:56:06.823Z,100803.82
2023-08-16T17:58:35.963Z,100802.14
2023-08-16T18:01:05.852Z,100805.57
2023-08-16T18:03:34.641Z,100807.23
2023-08-16T18:06:03.447Z,100810.59
2023-08-16T18:08:31.908Z,100814.16
2023-08-16T18:11:00.374Z,100816.86
2023-08-16T18:13:29.041Z,100821.34
2023-08-16T18:15:57.453Z,100831.46
2023-08-16T18:18:26.582Z,100830.69
2023-08-16T18:20:55.263Z,100835.82
2023-08-16T18:23:23.973Z,100841.30
2023-08-16T18:25:52.844Z,100842.73
2023-08-16T18:28:21.210Z,100841.71
2023-08-16T18:30:49.803Z,100845.28
2023-08-16T18:33:18.880Z,100849.17
2023-08-16T18:35:47.654Z,100852.01
2023-08-16T18:38:16.228Z,100856.02
2023-08-16T18:40:44.811Z,100857.80
2023-08-16T18:43:13.268Z,100863.02
2023-08-16T18:45:46.433Z,100866.77
2023-08-16T18:48:15.283Z,100865.90
2023-08-16T18:50:44.625Z,100867.23
2023-08-16T18:53:13.639Z,100869.25
2023-08-16T18:55:43.052Z,100869.00
2023-08-16T18:58:11.449Z,100869.58
2023-08-16T19:00:42.357Z,100871.44
2023-08-16T19:03:10.882Z,100868.69
2023-08-16T19:05:44.068Z,100871.17
2023-08-16T19:08:13.725Z,100871.58
2023-08-16T19:10:42.952Z,100873.56
2023-08-16T19:13:11.504Z,100875.30
2023-08-16T19:15:39.962Z,100874.86
2023-08-16T19:18:09.182Z,100872.48
2023-08-16T19:20:39.263Z,100870.80
2023-08-16T19:23:07.646Z,100871.31
2023-08-16T19:25:36.044Z,100867.48
2023-08-16T19:28:05.482Z,100863.98
2023-08-16T19:30:36.282Z,100865.36
2023-08-16T19:33:05.587Z,100867.42
2023-08-16T19:35:33.930Z,100872.70
2023-08-16T19:38:02.331Z,100873.96
2023-08-16T19:40:31.285Z,100875.02
2023-08-16T19:42:59.705Z,100877.13
2023-08-16T19:45:28.052Z,100876.62
2023-08-16T19:47:56.669Z,100871.23
2023-08-16T19:50:25.529Z,100872.17
2023-08-16T19:52:55.060Z,100873.60
2023-08-16T19:55:23.817Z,100871.06
2023-08-16T19:57:52.722Z,100870.81
2023-08-16T20:00:22.026Z,100871.25
2023-08-16T20:02:50.533Z,100869.63
2023-08-16T20:05:19.525Z,100871.27
2023-08-16T20:07:47.844Z,100869.48
2023-08-16T20:10:17.773Z,100876.03
2023-08-16T20:12:46.827Z,100872.89
2023-08-16T20:15:15.616Z,100874.20
2023-08-16T20:17:44.079Z,100871.60
2023-08-16T20:20:13.843Z,100879.14
2023-08-16T20:22:43.449Z,100880.67
2023-08-16T20:25:12.072Z,100881.69
2023-08-16T20:27:40.824Z,100878.20
2023-08-16T20:30:11.157Z,100884.10
2023-08-16T20:32:39.541Z,100886.21
2023-08-16T20:35:08.788Z,100883.91
2023-08-16T20:37:37.232Z,100883.66
2023-08-16T20:40:08.659Z,100883.87
2023-08-16T20:42:38.784Z,100888.00
2023-08-16T20:45:10.032Z,100887.38
2023-08-16T20:47:39.728Z,100892.83
2023-08-16T20:50:11.313Z,100890.50
2023-08-16T20:52:42.306Z,100888.41
2023-08-16T20:55:11.768Z,100885.52
2023-08-16T20:57:40.239Z,100888.02
2023-08-16T21:00:12.221Z,100890.94
2023-08-16T21:02:40.665Z,100891.46
2023-08-16T21:05:09.643Z,100892.45
2023-08-16T21:07:38.069Z,100894.61
2023-08-16T21:10:08.181Z,100892.81
2023-08-16T21:12:36.684Z,100894.46
2023-08-16T21:15:06.656Z,100897.13
2023-08-16T21:17:35.074Z,100894.60
2023-08-16T21:20:03.937Z,100893.57
2023-08-16T21:22:32.317Z,100895.23
2023-08-16T21:25:00.726Z,100892.68
2023-08-16T21:27:29.053Z,100895.61
2023-08-16T21:29:57.382Z,100896.65
2023-08-16T21:32:25.749Z,100894.79
2023-08-16T21:34:54.064Z,100893.44
2023-08-16T21:37:22.489Z,100887.34
2023-08-16T21:39:52.075Z,100884.44
2023-08-16T21:42:20.530Z,100881.30
2023-08-16T21:44:48.832Z,100880.55
2023-08-16T21:47:17.265Z,100879.91
2023-08-16T21:49:45.648Z,100877.15
2023-08-16T21:52:13.982Z,100874.36
2023-08-16T21:54:42.488Z,100884.20
2023-08-16T21:57:10.842Z,100883.90
2023-08-16T21:59:39.177Z,100881.14
2023-08-16T22:02:07.680Z,100880.95
2023-08-16T22:04:36.517Z,100874.98
2023-08-16T22:07:05.290Z,100878.31
2023-08-16T22:09:34.433Z,100873.44
2023-08-16T22:12:03.001Z,100873.16
2023-08-16T22:14:31.429Z,100872.84
2023-08-16T22:16:59.893Z,100879.05
2023-08-16T22:19:28.235Z,100879.23
2023-08-16T22:21:56.539Z,100890.24
2023-08-16T22:24:24.862Z,100896.55
2023-08-16T22:26:53.267Z,100893.59
2023-08-16T22:29:22.465Z,100890.37
2023-08-16T22:31:52.075Z,100883.10
2023-08-16T22:34:21.887Z,100881.84
2023-08-16T22:36:50.381Z,100885.21
2023-08-16T22:39:18.687Z,100879.86
2023-08-16T22:41:47.901Z,100879.40
2023-08-16T22:44:16.312Z,100878.25
2023-08-16T22:46:44.784Z,100876.36
2023-08-16T22:49:13.325Z,100875.12
2023-08-16T22:51:41.658Z,100874.84
2023-08-16T22:54:10.441Z,100873.20
2023-08-16T22:56:39.317Z,100871.44
2023-08-16T22:59:07.671Z,100868.84
2023-08-16T23:01:36.096Z,100861.52
2023-08-16T23:04:05.702Z,100853.10
2023-08-16T23:06:35.000Z,100852.18
2023-08-16T23:09:04.055Z,100853.96
2023-08-16T23:11:32.698Z,100850.69
2023-08-16T23:14:01.302Z,100854.02
2023-08-16T23:16:29.882Z,100855.65
2023-08-16T23:19:00.214Z,100855.93
2023-08-16T23:21:28.721Z,100855.51
2023-08-16T23:23:57.210Z,100852.81
2023-08-16T23:26:25.819Z,100860.60
2023-08-16T23:28:54.188Z,100872.68
2023-08-16T23:31:22.516Z,100874.13
2023-08-16T23:33:51.284Z,100878.05
2023-08-16T23:36:19.593Z,100883.58
2023-08-16T23:38:48.032Z,100884.58
2023-08-16T23:41:16.592Z,100879.35
2023-08-16T23:43:45.016Z,100885.30
2023-08-16T23:46:13.509Z,100881.45
2023-08-16T23:48:43.243Z,100887.46
2023-08-16T23:51:11.516Z,100888.61
2023-08-16T23:53:40.032Z,100889.23
2023-08-16T23:56:08.647Z,100886.82
2023-08-16T23:58:37.110Z,100889.50
